createdAt,value
2018-02-26T00:00:27.409Z,1.10
2018-02-26T00:02:54.962Z,1.00
2018-02-26T00:05:22.566Z,1.40
2018-02-26T00:07:50.138Z,1.20
2018-02-26T00:10:17.759Z,1.10
2018-02-26T00:12:45.281Z,1.20
2018-02-26T00:15:12.897Z,1.17
2018-02-26T00:17:41.325Z,1.30
2018-02-26T00:20:08.869Z,1.17
2018-02-26T00:22:41.624Z,1.23
2018-02-26T00:25:09.227Z,1.10
2018-02-26T00:27:36.825Z,1.30
2018-02-26T00:30:05.147Z,1.33
2018-02-26T00:32:32.719Z,1.00
2018-02-26T00:35:00.272Z,0.90
2018-02-26T00:37:27.835Z,1.53
2018-02-26T00:39:55.417Z,1.40
2018-02-26T00:42:22.995Z,1.10
2018-02-26T00:44:51.357Z,1.23
2018-02-26T00:47:18.937Z,1.07
2018-02-26T00:49:47.310Z,1.17
2018-02-26T00:52:15.638Z,1.27
2018-02-26T00:54:43.327Z,0.83
2018-02-26T00:57:10.872Z,1.13
2018-02-26T00:59:38.508Z,1.23
2018-02-26T01:02:06.063Z,1.13
2018-02-26T01:04:33.643Z,1.50
2018-02-26T01:07:01.235Z,1.40
2018-02-26T01:09:29.741Z,1.53
2018-02-26T01:11:58.365Z,1.00
2018-02-26T01:14:25.954Z,1.47
2018-02-26T01:19:28.263Z,1.23
2018-02-26T01:21:56.590Z,0.90
2018-02-26T01:24:24.172Z,1.20
2018-02-26T01:26:51.750Z,1.33
2018-02-26T01:29:19.282Z,1.60
2018-02-26T01:31:46.977Z,1.10
2018-02-26T01:34:15.293Z,1.20
2018-02-26T01:36:43.018Z,1.20
2018-02-26T01:39:12.072Z,1.17
2018-02-26T01:41:39.671Z,1.47
2018-02-26T01:44:07.259Z,1.43
2018-02-26T01:46:34.808Z,1.20
2018-02-26T01:49:03.145Z,1.30
2018-02-26T01:51:30.720Z,1.27
2018-02-26T01:53:58.274Z,1.10
2018-02-26T01:56:25.816Z,1.27
2018-02-26T01:58:53.433Z,1.07
2018-02-26T02:01:20.990Z,1.20
2018-02-26T02:03:48.563Z,1.30
2018-02-26T02:06:16.180Z,1.30
2018-02-26T02:08:43.794Z,1.50
2018-02-26T02:11:11.378Z,1.00
2018-02-26T02:13:39.022Z,1.10
2018-02-26T02:16:06.622Z,1.13
2018-02-26T02:18:34.234Z,1.13
2018-02-26T02:21:01.778Z,2.10
2018-02-26T02:23:29.369Z,1.00
2018-02-26T02:25:56.974Z,1.10
2018-02-26T02:28:25.448Z,1.03
2018-02-26T02:30:53.038Z,1.00
2018-02-26T02:33:20.613Z,1.03
2018-02-26T02:35:48.215Z,1.10
2018-02-26T02:38:15.850Z,0.80
2018-02-26T02:40:43.497Z,1.20
2018-02-26T02:43:11.056Z,1.13
2018-02-26T02:45:38.652Z,0.90
2018-02-26T02:48:06.256Z,1.47
2018-02-26T02:50:34.718Z,1.13
2018-02-26T02:53:03.053Z,1.00
2018-02-26T02:55:30.659Z,1.20
2018-02-26T02:57:58.238Z,1.10
2018-02-26T03:00:25.815Z,1.30
2018-02-26T03:02:53.388Z,1.07
2018-02-26T03:05:21.008Z,0.93
2018-02-26T03:07:49.327Z,1.57
2018-02-26T03:10:16.894Z,1.20
2018-02-26T03:12:44.430Z,1.47
2018-02-26T03:15:13.035Z,0.90
2018-02-26T03:17:40.580Z,1.40
2018-02-26T03:20:08.260Z,1.30
2018-02-26T03:22:35.814Z,1.30
2018-02-26T03:25:03.386Z,1.17
2018-02-26T03:27:31.016Z,1.13
2018-02-26T03:29:58.574Z,1.50
2018-02-26T03:32:26.158Z,0.97
2018-02-26T03:34:53.696Z,1.00
2018-02-26T03:37:21.264Z,1.23
2018-02-26T03:39:48.848Z,1.13
2018-02-26T03:42:16.403Z,1.30
2018-02-26T03:44:44.137Z,1.70
2018-02-26T03:47:11.694Z,1.50
2018-02-26T03:49:39.444Z,1.10
2018-02-26T03:52:07.029Z,1.40
2018-02-26T03:54:34.597Z,1.17
2018-02-26T03:57:02.152Z,0.80
2018-02-26T03:59:29.703Z,1.40
2018-02-26T04:01:57.321Z,1.23
2018-02-26T04:04:25.683Z,1.53
2018-02-26T04:06:53.327Z,1.20
2018-02-26T04:09:20.919Z,1.00
2018-02-26T04:11:49.324Z,1.60
2018-02-26T04:14:16.941Z,1.20
2018-02-26T04:16:44.493Z,1.10
2018-02-26T04:19:12.121Z,1.00
2018-02-26T04:21:39.748Z,1.27
2018-02-26T04:24:08.107Z,1.53
2018-02-26T04:26:35.703Z,1.13
2018-02-26T04:29:03.250Z,1.23
2018-02-26T04:31:31.621Z,1.27
2018-02-26T04:33:59.985Z,1.40
2018-02-26T04:36:27.596Z,1.43
2018-02-26T04:38:55.335Z,1.40
2018-02-26T04:41:23.715Z,1.33
2018-02-26T04:43:52.052Z,1.57
2018-02-26T04:46:19.613Z,1.20
2018-02-26T04:48:47.169Z,1.33
2018-02-26T04:51:14.783Z,2.03
2018-02-26T04:53:42.369Z,1.90
2018-02-26T04:56:09.929Z,1.53
2018-02-26T04:58:37.549Z,1.30
2018-02-26T05:01:05.885Z,1.53
2018-02-26T05:03:33.464Z,1.40
2018-02-26T05:06:01.013Z,1.20
2018-02-26T05:08:28.771Z,1.03
2018-02-26T05:10:56.367Z,1.53
2018-02-26T05:13:24.706Z,1.90
2018-02-26T05:15:52.405Z,1.13
2018-02-26T05:18:20.727Z,1.13
2018-02-26T05:20:48.310Z,1.70
2018-02-26T05:23:15.895Z,1.90
2018-02-26T05:25:44.263Z,1.47
2018-02-26T05:28:11.843Z,1.33
2018-02-26T05:30:40.208Z,1.53
2018-02-26T05:33:07.802Z,1.87
2018-02-26T05:35:35.555Z,1.90
2018-02-26T05:38:03.915Z,1.40
2018-02-26T05:40:32.240Z,1.90
2018-02-26T05:42:59.829Z,1.53
2018-02-26T05:45:27.596Z,2.00
2018-02-26T05:47:55.135Z,1.30
2018-02-26T05:50:22.721Z,1.70
2018-02-26T05:52:50.330Z,1.30
2018-02-26T05:55:18.043Z,1.10
2018-02-26T05:57:45.676Z,1.37
2018-02-26T06:00:13.242Z,1.57
2018-02-26T06:02:41.009Z,1.50
2018-02-26T06:05:08.619Z,1.77
2018-02-26T06:07:36.969Z,1.10
2018-02-26T06:10:04.635Z,1.50
2018-02-26T06:12:32.458Z,1.00
2018-02-26T06:15:00.198Z,1.60
2018-02-26T06:17:27.793Z,2.07
2018-02-26T06:19:55.386Z,2.07
2018-02-26T06:22:23.700Z,1.00
2018-02-26T06:24:51.318Z,1.70
2018-02-26T06:27:18.930Z,1.77
2018-02-26T06:29:46.485Z,1.37
2018-02-26T06:32:14.070Z,1.20
2018-02-26T06:34:41.657Z,2.10
2018-02-26T06:37:09.263Z,1.37
2018-02-26T06:39:36.807Z,1.90
2018-02-26T06:42:05.205Z,1.60
2018-02-26T06:44:32.783Z,2.00
2018-02-26T06:47:00.368Z,1.93
2018-02-26T06:49:27.967Z,1.17
2018-02-26T06:51:56.332Z,1.77
2018-02-26T06:54:24.719Z,1.43
2018-02-26T06:56:53.094Z,1.53
2018-02-26T06:59:21.505Z,2.00
2018-02-26T07:01:49.165Z,2.13
2018-02-26T07:04:16.741Z,2.40
2018-02-26T07:06:44.309Z,2.83
2018-02-26T07:09:11.942Z,2.03
2018-02-26T07:11:39.529Z,2.67
2018-02-26T07:14:07.094Z,3.70
2018-02-26T07:16:34.651Z,3.13
2018-02-26T07:19:02.219Z,2.30
2018-02-26T07:21:29.785Z,3.20
2018-02-26T07:23:57.550Z,3.77
2018-02-26T07:26:25.115Z,3.37
2018-02-26T07:28:52.674Z,3.23
2018-02-26T07:31:20.285Z,3.20
2018-02-26T07:33:47.885Z,2.50
2018-02-26T07:36:15.487Z,2.60
2018-02-26T07:38:43.271Z,2.10
2018-02-26T07:41:10.859Z,3.07
2018-02-26T07:43:38.481Z,4.03
2018-02-26T07:46:06.093Z,2.93
2018-02-26T07:48:35.174Z,2.37
2018-02-26T07:51:02.734Z,3.17
2018-02-26T07:53:30.336Z,2.13
2018-02-26T07:55:57.870Z,3.50
2018-02-26T07:58:25.446Z,2.43
2018-02-26T08:00:52.996Z,2.17
2018-02-26T08:03:20.592Z,2.60
2018-02-26T08:05:48.216Z,8.07
2018-02-26T08:08:17.315Z,5.77
2018-02-26T08:10:44.924Z,2.87
2018-02-26T08:13:12.510Z,2.90
2018-02-26T08:15:40.066Z,3.13
2018-02-26T08:18:07.661Z,2.60
2018-02-26T08:20:35.208Z,2.37
2018-02-26T08:23:02.772Z,1.93
2018-02-26T08:25:30.331Z,2.20
2018-02-26T08:27:57.859Z,2.27
2018-02-26T08:30:25.444Z,2.60
2018-02-26T08:32:52.986Z,2.60
2018-02-26T08:35:20.606Z,2.70
2018-02-26T08:37:48.264Z,2.80
2018-02-26T08:40:15.849Z,2.27
2018-02-26T08:42:43.398Z,2.90
2018-02-26T08:45:11.014Z,1.43
2018-02-26T08:47:38.576Z,1.93
2018-02-26T08:50:06.911Z,1.83
2018-02-26T08:52:34.480Z,2.30
2018-02-26T08:55:02.066Z,2.97
2018-02-26T08:57:29.670Z,2.10
2018-02-26T08:59:57.221Z,1.80
2018-02-26T09:02:24.806Z,2.10
2018-02-26T09:04:52.394Z,2.37
2018-02-26T09:07:19.956Z,3.70
2018-02-26T09:09:47.520Z,1.20
2018-02-26T09:12:15.141Z,1.33
2018-02-26T09:14:42.756Z,1.93
2018-02-26T09:17:10.310Z,1.83
2018-02-26T09:19:37.931Z,1.80
2018-02-26T09:22:05.495Z,1.63
2018-02-26T09:24:33.811Z,1.93
2018-02-26T09:27:01.406Z,2.37
2018-02-26T09:29:28.963Z,2.20
2018-02-26T09:31:56.524Z,1.73
2018-02-26T09:34:24.085Z,1.37
2018-02-26T09:36:51.687Z,2.43
2018-02-26T09:39:19.243Z,1.70
2018-02-26T09:41:46.817Z,1.90
2018-02-26T09:44:14.486Z,1.63
2018-02-26T09:46:42.059Z,2.00
2018-02-26T09:49:10.405Z,1.17
2018-02-26T09:51:37.964Z,1.43
2018-02-26T09:54:05.549Z,1.60
2018-02-26T09:56:33.236Z,1.90
2018-02-26T09:59:00.816Z,0.97
2018-02-26T10:01:28.399Z,1.20
2018-02-26T10:03:55.981Z,1.87
2018-02-26T10:06:23.550Z,1.37
2018-02-26T10:08:51.209Z,1.23
2018-02-26T10:11:18.776Z,1.20
2018-02-26T10:13:47.090Z,1.70
2018-02-26T10:16:14.876Z,2.00
2018-02-26T10:18:42.443Z,1.03
2018-02-26T10:21:10.024Z,1.00
2018-02-26T10:23:37.636Z,3.40
2018-02-26T10:26:05.185Z,2.17
2018-02-26T10:28:32.736Z,2.27
2018-02-26T10:31:01.098Z,1.77
2018-02-26T10:33:28.676Z,1.30
2018-02-26T10:35:56.313Z,1.00
2018-02-26T10:38:23.975Z,2.20
2018-02-26T10:40:52.462Z,1.30
2018-02-26T10:43:20.804Z,1.20
2018-02-26T10:45:48.350Z,1.67
2018-02-26T10:48:15.939Z,1.27
2018-02-26T10:50:43.877Z,1.93
2018-02-26T10:53:11.484Z,1.40
2018-02-26T10:55:39.047Z,1.40
2018-02-26T10:58:07.362Z,1.63
2018-02-26T11:00:34.962Z,1.30
2018-02-26T11:03:02.542Z,0.93
2018-02-26T11:05:31.169Z,1.30
2018-02-26T11:07:58.730Z,1.70
2018-02-26T11:10:26.306Z,1.10
2018-02-26T11:12:53.882Z,1.13
2018-02-26T11:15:21.483Z,1.23
2018-02-26T11:17:49.800Z,1.03
2018-02-26T11:20:17.364Z,1.60
2018-02-26T11:22:44.905Z,1.33
2018-02-26T11:25:12.521Z,1.57
2018-02-26T11:27:40.068Z,1.13
2018-02-26T11:30:07.818Z,1.20
2018-02-26T11:32:35.418Z,1.20
2018-02-26T11:35:04.749Z,1.13
2018-02-26T11:37:32.328Z,1.67
2018-02-26T11:39:59.892Z,1.33
2018-02-26T11:42:27.458Z,1.50
2018-02-26T11:44:55.038Z,1.03
2018-02-26T11:47:22.686Z,0.97
2018-02-26T11:49:50.286Z,1.00
2018-02-26T11:52:18.660Z,1.20
2018-02-26T11:54:46.350Z,1.50
2018-02-26T11:57:13.907Z,0.90
2018-02-26T11:59:41.478Z,1.43
2018-02-26T12:04:59.676Z,1.40
2018-02-26T12:07:27.187Z,0.73
2018-02-26T12:09:54.802Z,1.10
2018-02-26T12:12:22.376Z,1.27
2018-02-26T12:14:50.694Z,0.97
2018-02-26T12:17:18.266Z,1.77
2018-02-26T12:19:45.960Z,0.90
2018-02-26T12:22:13.531Z,1.30
2018-02-26T12:24:41.084Z,0.77
2018-02-26T12:27:09.433Z,1.13
2018-02-26T12:29:37.036Z,1.17
2018-02-26T12:32:05.422Z,1.40
2018-02-26T12:34:33.777Z,0.97
2018-02-26T12:37:02.153Z,1.07
2018-02-26T12:39:29.744Z,1.30
2018-02-26T12:41:57.288Z,1.00
2018-02-26T12:44:25.652Z,1.47
2018-02-26T12:46:53.215Z,1.37
2018-02-26T12:49:20.766Z,0.93
2018-02-26T12:51:48.385Z,1.87
2018-02-26T12:54:16.007Z,1.50
2018-02-26T12:56:44.465Z,1.00
2018-02-26T12:59:12.288Z,1.13
2018-02-26T13:01:39.898Z,1.13
2018-02-26T13:04:07.460Z,1.90
2018-02-26T13:06:35.065Z,2.40
2018-02-26T13:09:03.551Z,1.27
2018-02-26T13:11:31.237Z,1.40
2018-02-26T13:13:58.817Z,2.63
2018-02-26T13:16:26.400Z,1.37
2018-02-26T13:18:54.117Z,1.93
2018-02-26T13:21:21.702Z,1.20
2018-02-26T13:23:49.238Z,2.20
2018-02-26T13:26:16.887Z,1.70
2018-02-26T13:28:44.584Z,1.70
2018-02-26T13:31:12.194Z,2.00
2018-02-26T13:33:39.822Z,1.63
2018-02-26T13:36:08.281Z,1.33
2018-02-26T13:38:35.925Z,1.00
2018-02-26T13:41:03.480Z,1.57
2018-02-26T13:43:31.074Z,1.50
2018-02-26T13:45:58.630Z,2.00
2018-02-26T13:48:26.230Z,1.50
2018-02-26T13:50:53.808Z,1.80
2018-02-26T13:53:21.404Z,1.17
2018-02-26T13:55:49.020Z,0.90
2018-02-26T13:58:16.728Z,1.50
2018-02-26T14:00:45.200Z,1.20
2018-02-26T14:03:12.758Z,2.00
2018-02-26T14:05:40.322Z,1.23
2018-02-26T14:08:07.906Z,1.60
2018-02-26T14:10:36.230Z,1.53
2018-02-26T14:13:03.879Z,1.20
2018-02-26T14:15:31.440Z,0.80
2018-02-26T14:17:58.993Z,1.63
2018-02-26T14:20:26.619Z,1.13
2018-02-26T14:22:54.222Z,0.97
2018-02-26T14:25:21.756Z,0.90
2018-02-26T14:27:50.207Z,1.20
2018-02-26T14:30:17.832Z,1.00
2018-02-26T14:32:45.428Z,1.87
2018-02-26T14:35:12.995Z,1.77
2018-02-26T14:37:40.667Z,1.10
2018-02-26T14:40:08.976Z,1.10
2018-02-26T14:42:36.580Z,2.30
2018-02-26T14:45:04.157Z,1.23
2018-02-26T14:47:31.759Z,1.30
2018-02-26T14:49:59.312Z,1.10
2018-02-26T14:52:26.983Z,1.00
2018-02-26T14:54:54.591Z,2.17
2018-02-26T14:57:22.172Z,0.93
2018-02-26T14:59:50.522Z,0.93
2018-02-26T15:02:18.088Z,0.90
2018-02-26T15:04:45.645Z,0.90
2018-02-26T15:07:13.267Z,0.80
2018-02-26T15:09:40.824Z,1.33
2018-02-26T15:12:08.411Z,1.37
2018-02-26T15:14:35.967Z,1.70
2018-02-26T15:17:03.609Z,1.40
2018-02-26T15:19:31.181Z,1.37
2018-02-26T15:21:58.778Z,1.40
2018-02-26T15:24:26.383Z,1.23
2018-02-26T15:26:53.930Z,0.90
2018-02-26T15:29:21.535Z,1.47
2018-02-26T15:31:49.065Z,1.00
2018-02-26T15:34:16.668Z,1.07
2018-02-26T15:36:44.227Z,1.40
2018-02-26T15:39:11.767Z,1.10
2018-02-26T15:41:39.347Z,1.60
2018-02-26T15:44:06.961Z,1.50
2018-02-26T15:46:34.576Z,1.37
2018-02-26T15:49:02.923Z,0.97
2018-02-26T15:51:30.513Z,1.23
2018-02-26T15:53:58.071Z,1.20
2018-02-26T15:56:25.647Z,1.03
2018-02-26T15:58:54.007Z,1.27
2018-02-26T16:01:21.588Z,1.23
2018-02-26T16:03:50.077Z,1.03
2018-02-26T16:06:17.641Z,1.17
2018-02-26T16:08:47.023Z,1.00
2018-02-26T16:11:15.456Z,0.70
2018-02-26T16:13:43.102Z,0.80
2018-02-26T16:16:10.650Z,0.97
2018-02-26T16:18:38.267Z,1.40
2018-02-26T16:21:05.842Z,0.90
2018-02-26T16:23:34.211Z,1.30
2018-02-26T16:26:01.790Z,1.47
2018-02-26T16:28:30.326Z,1.03
2018-02-26T16:30:57.917Z,0.90
2018-02-26T16:33:25.470Z,1.20
2018-02-26T16:35:54.088Z,1.40
2018-02-26T16:38:21.726Z,1.67
2018-02-26T16:40:50.644Z,1.37
2018-02-26T16:43:18.258Z,1.40
2018-02-26T16:45:46.623Z,1.20
2018-02-26T16:48:14.214Z,0.80
2018-02-26T16:50:41.802Z,1.33
2018-02-26T16:53:09.380Z,1.33
2018-02-26T16:55:37.127Z,1.67
2018-02-26T16:58:04.687Z,1.50
2018-02-26T17:00:32.347Z,3.13
2018-02-26T17:02:59.971Z,24.70
2018-02-26T17:05:27.571Z,27.80
2018-02-26T17:07:55.127Z,22.60
2018-02-26T17:10:22.758Z,23.13
2018-02-26T17:12:50.331Z,16.57
2018-02-26T17:15:18.792Z,9.63
2018-02-26T17:17:46.362Z,20.03
2018-02-26T17:20:14.871Z,15.57
2018-02-26T17:22:42.451Z,12.97
2018-02-26T17:25:10.109Z,9.10
2018-02-26T17:27:37.770Z,9.03
2018-02-26T17:30:05.363Z,7.90
2018-02-26T17:32:32.913Z,7.90
2018-02-26T17:35:00.570Z,6.17
2018-02-26T17:37:29.114Z,6.10
2018-02-26T17:39:56.714Z,6.50
2018-02-26T17:42:24.308Z,5.93
2018-02-26T17:44:51.945Z,6.10
2018-02-26T17:47:19.512Z,6.17
2018-02-26T17:49:47.090Z,5.20
2018-02-26T17:52:14.832Z,4.77
2018-02-26T17:54:42.475Z,4.93
2018-02-26T17:57:10.084Z,4.40
2018-02-26T17:59:38.437Z,4.00
2018-02-26T18:02:06.010Z,3.40
2018-02-26T18:04:33.588Z,3.80
2018-02-26T18:07:01.997Z,3.70
2018-02-26T18:09:29.597Z,3.07
2018-02-26T18:11:57.330Z,3.83
2018-02-26T18:14:24.938Z,3.30
2018-02-26T18:16:52.545Z,3.10
2018-02-26T18:19:20.127Z,2.87
2018-02-26T18:21:47.675Z,2.60
2018-02-26T18:24:15.291Z,3.17
2018-02-26T18:26:43.615Z,3.70
2018-02-26T19:01:03.732Z,1.70
2018-02-26T19:03:31.328Z,2.27
2018-02-26T19:05:59.682Z,2.10
2018-02-26T19:08:27.286Z,1.27
2018-02-26T19:10:54.864Z,1.53
2018-02-26T19:13:22.456Z,1.93
2018-02-26T19:15:50.387Z,1.43
2018-02-26T19:18:18.062Z,2.37
2018-02-26T19:20:45.812Z,1.80
2018-02-26T19:23:13.467Z,1.70
2018-02-26T19:25:41.064Z,1.83
2018-02-26T19:28:08.672Z,1.70
2018-02-26T19:30:37.027Z,1.87
2018-02-26T19:33:04.636Z,1.60
2018-02-26T19:35:32.295Z,1.80
2018-02-26T19:37:59.884Z,2.57
2018-02-26T19:40:27.546Z,1.03
2018-02-26T19:42:55.190Z,1.30
2018-02-26T19:45:22.811Z,1.40
2018-02-26T19:47:51.533Z,1.33
2018-02-26T19:50:19.178Z,1.70
2018-02-26T19:52:47.519Z,1.27
2018-02-26T19:55:15.880Z,0.90
2018-02-26T19:57:44.426Z,1.40
2018-02-26T20:00:12.042Z,1.43
2018-02-26T20:02:39.659Z,1.10
2018-02-26T20:05:07.252Z,1.77
2018-02-26T20:07:34.889Z,1.60
2018-02-26T20:10:02.700Z,1.33
2018-02-26T20:12:31.061Z,1.47
2018-02-26T20:14:58.682Z,1.33
2018-02-26T20:17:26.273Z,1.30
2018-02-26T20:19:53.909Z,1.10
2018-02-26T20:22:21.515Z,0.90
2018-02-26T20:24:49.919Z,1.23
2018-02-26T20:27:17.528Z,1.20
2018-02-26T20:29:45.182Z,1.00
2018-02-26T20:32:12.825Z,1.20
2018-02-26T20:34:40.465Z,1.13
2018-02-26T20:37:08.073Z,1.20
2018-02-26T20:39:35.681Z,1.47
2018-02-26T20:42:03.691Z,1.10
2018-02-26T20:44:31.363Z,0.80
2018-02-26T20:46:59.109Z,1.10
2018-02-26T20:49:26.882Z,0.90
2018-02-26T20:51:55.207Z,1.10
2018-02-26T20:54:23.547Z,1.20
2018-02-26T20:56:51.191Z,1.10
2018-02-26T20:59:18.789Z,0.90
2018-02-26T21:01:47.187Z,1.17
2018-02-26T21:04:15.555Z,1.30
2018-02-26T21:06:43.200Z,0.90
2018-02-26T21:09:11.147Z,1.10
2018-02-26T21:11:38.883Z,1.00
2018-02-26T21:14:06.644Z,1.10
2018-02-26T21:16:34.255Z,1.23
2018-02-26T21:19:01.869Z,1.10
2018-02-26T21:21:29.458Z,0.90
2018-02-26T21:23:57.046Z,0.90
2018-02-26T21:26:24.613Z,0.90
2018-02-26T21:28:52.218Z,0.97
2018-02-26T21:31:19.796Z,0.83
2018-02-26T21:33:47.383Z,0.90
2018-02-26T21:36:16.125Z,0.90
2018-02-26T21:38:43.832Z,0.90
2018-02-26T21:41:11.370Z,1.07
2018-02-26T21:43:38.970Z,1.30
2018-02-26T21:46:07.299Z,1.10
2018-02-26T21:48:34.885Z,0.80
2018-02-26T21:51:02.450Z,0.90
2018-02-26T21:53:30.039Z,0.80
2018-02-26T21:55:58.383Z,0.93
2018-02-26T21:58:25.947Z,1.27
2018-02-26T22:00:53.514Z,0.90
2018-02-26T22:03:21.116Z,0.87
2018-02-26T22:05:48.676Z,0.80
2018-02-26T22:08:16.293Z,0.80
2018-02-26T22:10:43.873Z,0.70
2018-02-26T22:13:12.204Z,0.63
2018-02-26T22:15:39.959Z,0.90
2018-02-26T22:18:07.509Z,1.13
2018-02-26T22:20:35.091Z,1.00
2018-02-26T22:23:02.685Z,0.83
2018-02-26T22:25:30.267Z,0.70
2018-02-26T22:27:57.828Z,0.83
2018-02-26T22:30:25.380Z,0.80
2018-02-26T22:32:53.366Z,0.70
2018-02-26T22:35:20.931Z,1.03
2018-02-26T22:37:48.497Z,1.10
2018-02-26T22:40:16.355Z,1.17
2018-02-26T22:42:43.963Z,0.90
2018-02-26T22:45:11.515Z,0.80
2018-02-26T22:47:39.083Z,1.10
2018-02-26T22:50:06.637Z,1.17
2018-02-26T22:52:34.202Z,1.43
2018-02-26T22:55:01.946Z,0.77
2018-02-26T22:57:29.550Z,0.87
2018-02-26T22:59:58.055Z,0.93
2018-02-26T23:02:25.636Z,0.80
2018-02-26T23:04:53.218Z,0.60
2018-02-26T23:07:20.770Z,1.00
2018-02-26T23:09:48.358Z,1.00
2018-02-26T23:12:16.716Z,1.23
2018-02-26T23:14:44.309Z,0.90
2018-02-26T23:17:11.962Z,1.00
2018-02-26T23:19:40.525Z,0.70
2018-02-26T23:22:08.110Z,0.77
2018-02-26T23:24:36.443Z,0.80
2018-02-26T23:27:03.999Z,1.00
2018-02-26T23:29:31.636Z,1.10
2018-02-26T23:31:59.184Z,1.07
2018-02-26T23:34:26.779Z,0.93
2018-02-26T23:36:54.364Z,1.00
2018-02-26T23:39:21.940Z,1.47
2018-02-26T23:41:50.316Z,0.90
2018-02-26T23:44:18.681Z,0.97
2018-02-26T23:46:46.231Z,0.80
2018-02-26T23:49:13.919Z,1.30
2018-02-26T23:51:42.249Z,0.80
2018-02-26T23:54:21.592Z,0.93
2018-02-26T23:56:49.159Z,1.50
2018-02-26T23:59:16.719Z,1.20
